Los Angeles Regional Airport Weather

KWHP 172255Z 14009KT 10SM SKC 28/12 A2999

KAPV 191256Z AUTO 05004KT 10SM FEW075 SCT090 BKN110 18/18 A2996 RMK AO2 SLP144 T01830178 $

KAVX 201151Z AUTO 00000KT 3SM BR OVC002 15/15 A2995 RMK AO2 SLP126 T01500150 10156 20144 55005 $

KBFL 201154Z AUTO 34005KT 10SM CLR 24/12 A2982 RMK AO2 SLP089 T02440122 10300 20244 53001

KBUR 201153Z 05004KT 10SM OVC012 18/14 A2992 RMK AO2 SLP120 T01780144 10183 20172 55005

KCMA 201155Z AUTO 25004KT 10SM OVC016 19/16 A2992 RMK AO2 SLP139 T01890156 10194 20189 55003

KCNO 201153Z AUTO 31004KT 6SM HZ BKN012 18/16 A2994 RMK AO2 SLP132 T01830156 10194 20172 55006

KEMT 192345Z 20011KT 10SM FEW055 28/14 A2989

KFUL 201153Z AUTO 25003KT 10SM OVC019 20/16 A2991 RMK AO2 SLP126 T02000161 10206 20194 55005 $

KHHR 201153Z AUTO 00000KT 10SM OVC018 19/16 A2992 RMK AO2 SLP131 T01940156 10194 20194 55005

KL35 201135Z AUTO 00000KT 10SM CLR 07/01 A3019 RMK AO2

KLAX 201153Z 27006KT 10SM OVC020 19/16 A2992 RMK AO2 SLP129 T01940161 10194 20189 55005

KLGB 201153Z AUTO 21004KT 10SM OVC019 19/16 A2992 RMK AO2 SLP130 T01940156 10200 20189 55005

KONT 201153Z 25005KT 7SM BKN011 17/15 A2993 RMK AO2 SLP119 T01720150 10194 20167 55006

KOXR 201151Z AUTO 00000KT 10SM OVC014 17/11 A2992 RMK AO2 SLP131 T01720111 10178 20172 55003 $

KPMD 201153Z AUTO 21009KT 10SM CLR 22/09 A2992 RMK AO2 SLP098 T02170094 10267 20200 55003

KPOC 200347Z 26009KT 10SM CLR 20/14 A2996

KRAL 201153Z AUTO 28004KT 8SM OVC010 17/16 A2993 RMK AO2 SLP119 T01720161 10200 20167 55004

KSMO 201151Z AUTO 00000KT 10SM OVC016 19/16 A2992 RMK AO2 SLP131 T01940156 10194 20189 55005

KSNA 201153Z 00000KT 10SM OVC021 21/16 A2991 RMK AO2 SLP127 T02060156 10206 20194 56007

KTOA 200247Z 27006KT 10SM FEW010 18/15 A2990

KTRM 201152Z AUTO 00000KT 10SM CLR 23/13 A2974 RMK AO2 SLP073 T02280133 10322 20228 53003

KVNY 201151Z AUTO 11004KT 10SM OVC011 18/16 A2992 RMK AO2 SLP124 T01780156 10189 20167 55006 $

KWJF 201156Z AUTO 19003KT 10SM CLR 21/07 A2991 RMK AO2 SLP105 T02110072 10



How to read METARs